Time;durP1;ratioP1;P1;durP2;ratioP2;P2;SDS_P1;SDS_P2;PMS_P1;PMS_P2;Temp;Humidity;BMP_temperature;BMP_pressure;BME280_temperature;BME280_humidity;BME280_pressure;Samples;Min_cycle;Max_cycle;Signal;HPM_P1;HPM_P2
2022/11/24 00:01:16;;;;;;;23.35;11.48;;;7.20;99.90;;;;;;5032055;28;20417;-61
2022/11/24 00:03:52;;;;;;;25.20;12.18;;;7.00;99.90;;;;;;5014224;28;20056;-61
2022/11/24 00:06:17;;;;;;;25.13;13.18;;;7.20;99.90;;;;;;5031936;28;20092;-61
2022/11/24 00:08:45;;;;;;;22.17;12.05;;;7.00;99.90;;;;;;5031850;28;20044;-62
2022/11/24 00:11:17;;;;;;;27.83;12.68;;;7.40;99.90;;;;;;5033656;28;20041;-61
2022/11/24 00:13:43;;;;;;;21.00;12.05;;;7.10;99.90;;;;;;5036049;28;20045;-61
2022/11/24 00:16:25;;;;;;;24.60;13.18;;;6.90;99.90;;;;;;5035666;28;20120;-62
2022/11/24 00:18:53;;;;;;;28.63;13.00;;;7.30;99.90;;;;;;5036194;28;20041;-61
2022/11/24 00:21:20;;;;;;;24.58;12.68;;;7.30;99.90;;;;;;5035839;28;20037;-61
2022/11/24 00:23:47;;;;;;;24.55;12.60;;;7.10;99.90;;;;;;5035680;28;20034;-61
2022/11/24 00:26:30;;;;;;;25.33;13.18;;;6.90;99.90;;;;;;5017841;28;20072;-61
2022/11/24 00:28:58;;;;;;;28.50;11.77;;;7.00;99.90;;;;;;5035875;28;20083;-62
2022/11/24 00:31:35;;;;;;;24.92;12.57;;;7.10;99.90;;;;;;5035670;28;20065;-60
2022/11/24 00:34:04;;;;;;;32.15;11.90;;;7.20;99.90;;;;;;5035702;28;20042;-61
2022/11/24 00:36:32;;;;;;;26.75;12.52;;;6.90;99.90;;;;;;5035340;28;20044;-61
2022/11/24 00:39:01;;;;;;;26.13;12.43;;;6.80;99.90;;;;;;5035625;28;20128;-61
2022/11/24 00:41:27;;;;;;;26.33;12.07;;;7.20;99.90;;;;;;5035413;28;20041;-61
2022/11/24 00:43:53;;;;;;;24.92;12.27;;;7.10;99.90;;;;;;5035454;28;20066;-62
2022/11/24 00:46:20;;;;;;;22.88;11.20;;;7.10;99.90;;;;;;5035399;28;20034;-62
2022/11/24 00:48:45;;;;;;;23.80;11.77;;;6.80;99.90;;;;;;5035657;28;20037;-62
2022/11/24 00:51:13;;;;;;;25.83;12.27;;;6.90;99.90;;;;;;5035388;28;20386;-62
2022/11/24 00:53:40;;;;;;;26.52;11.98;;;7.20;99.90;;;;;;5035226;28;20516;-62
2022/11/24 00:56:07;;;;;;;27.73;11.63;;;6.80;99.90;;;;;;5035613;28;20052;-62
2022/11/24 00:58:34;;;;;;;30.50;12.50;;;6.80;99.90;;;;;;5018828;28;20041;-61
2022/11/24 01:01:05;;;;;;;26.40;11.02;;;6.80;99.90;;;;;;5037860;28;20053;-60
2022/11/24 01:03:31;;;;;;;28.55;11.43;;;6.90;99.90;;;;;;5042197;28;20049;-61
2022/11/24 01:06:06;;;;;;;30.55;11.52;;;7.00;99.90;;;;;;5041669;28;20095;-61
2022/11/24 01:08:32;;;;;;;26.73;12.48;;;7.20;99.90;;;;;;5041967;28;20061;-61
2022/11/24 01:11:25;;;;;;;30.67;11.45;;;6.90;99.90;;;;;;5034756;28;20088;-61
2022/11/24 01:13:53;;;;;;;23.77;10.70;;;6.80;99.90;;;;;;5028616;28;20498;-62
2022/11/24 01:16:22;;;;;;;25.90;11.40;;;6.80;99.90;;;;;;5034864;28;20095;-61
2022/11/24 01:18:48;;;;;;;31.85;10.77;;;7.20;99.90;;;;;;5035068;28;20111;-61
2022/11/24 01:21:14;;;;;;;25.27;10.00;;;7.10;99.90;;;;;;5034388;28;20489;-61
2022/11/24 01:23:40;;;;;;;25.27;9.85;;;7.20;99.90;;;;;;5034744;28;20132;-62
2022/11/24 01:26:10;;;;;;;19.20;8.98;;;7.20;99.90;;;;;;5034733;28;20120;-62
2022/11/24 01:28:36;;;;;;;27.40;9.88;;;6.90;99.90;;;;;;5016854;28;20052;-61
2022/11/24 01:31:05;;;;;;;25.55;9.20;;;6.80;99.90;;;;;;5034795;28;20068;-62
2022/11/24 01:33:31;;;;;;;25.10;8.40;;;6.90;99.90;;;;;;5016702;28;20068;-61
2022/11/24 01:35:57;;;;;;;24.23;9.57;;;7.00;99.90;;;;;;5000550;28;20049;-60
2022/11/24 01:38:24;;;;;;;26.25;9.07;;;7.10;99.90;;;;;;5016984;28;20116;-61
2022/11/24 01:41:00;;;;;;;20.20;8.23;;;7.10;99.90;;;;;;5034557;28;20042;-62
2022/11/24 01:43:25;;;;;;;23.73;9.25;;;6.80;99.90;;;;;;5034176;28;20077;-62
2022/11/24 01:45:52;;;;;;;26.20;8.60;;;7.20;99.90;;;;;;5034262;28;20571;-61
2022/11/24 01:48:31;;;;;;;29.27;8.50;;;7.00;99.90;;;;;;5034441;28;20037;-61
2022/11/24 01:51:07;;;;;;;22.80;8.05;;;7.20;99.90;;;;;;5034379;28;20163;-62
2022/11/24 01:53:33;;;;;;;28.75;8.93;;;7.00;99.90;;;;;;5034083;28;20079;-61
2022/11/24 01:55:59;;;;;;;21.70;9.10;;;7.10;99.90;;;;;;5034165;28;20083;-61
2022/11/24 01:58:29;;;;;;;23.15;7.82;;;7.00;99.90;;;;;;5053006;28;20159;-61
2022/11/24 02:00:55;;;;;;;24.35;7.47;;;7.00;99.90;;;;;;5054222;28;20049;-61
2022/11/24 02:03:26;;;;;;;24.45;7.65;;;7.30;99.90;;;;;;5053664;28;20170;-59
2022/11/24 02:05:55;;;;;;;26.35;7.65;;;7.00;99.90;;;;;;5053860;28;20045;-60
2022/11/24 02:08:31;;;;;;;21.90;7.97;;;7.40;99.90;;;;;;5054047;28;20144;-61
2022/11/24 02:10:57;;;;;;;29.35;7.30;;;7.20;99.90;;;;;;5053676;28;20060;-61
2022/11/24 02:13:23;;;;;;;22.30;7.32;;;7.30;99.90;;;;;;5053596;28;20059;-61
2022/11/24 02:15:50;;;;;;;26.77;7.53;;;7.40;99.90;;;;;;5053743;28;20128;-61
2022/11/24 02:18:16;;;;;;;29.25;9.68;;;7.00;99.90;;;;;;5054036;28;20377;-61
2022/11/24 02:20:41;;;;;;;27.48;7.70;;;7.40;99.90;;;;;;5053862;28;20040;-62
2022/11/24 02:23:23;;;;;;;20.20;7.03;;;6.90;99.90;;;;;;5053276;28;20047;-61
2022/11/24 02:26:17;;;;;;;27.00;7.18;;;7.10;99.90;;;;;;5053725;28;20052;-60
2022/11/24 02:28:43;;;;;;;18.42;5.93;;;6.90;99.90;;;;;;5053226;28;20080;-61
2022/11/24 02:31:09;;;;;;;30.63;7.10;;;7.30;99.90;;;;;;5053636;28;20072;-60
2022/11/24 02:33:35;;;;;;;24.45;6.93;;;7.40;99.90;;;;;;5052414;28;20044;-61
2022/11/24 02:36:01;;;;;;;22.90;6.30;;;7.10;99.90;;;;;;5053295;28;20049;-61
2022/11/24 02:38:32;;;;;;;24.40;7.38;;;6.80;99.90;;;;;;5053446;28;20083;-61
2022/11/24 02:41:02;;;;;;;21.60;5.95;;;7.20;99.90;;;;;;5053394;28;20041;-61
2022/11/24 02:43:31;;;;;;;21.77;6.00;;;7.30;99.90;;;;;;5035449;28;20439;-60
2022/11/24 02:45:57;;;;;;;26.10;6.20;;;7.20;99.90;;;;;;5035062;28;20037;-62
2022/11/24 02:48:23;;;;;;;21.63;5.70;;;6.80;99.90;;;;;;5052983;28;20067;-63
2022/11/24 02:50:48;;;;;;;21.73;6.00;;;6.80;99.90;;;;;;5052794;28;20098;-61
2022/11/24 02:53:14;;;;;;;27.30;6.88;;;7.10;99.90;;;;;;5053056;28;20051;-61
2022/11/24 02:55:40;;;;;;;28.23;7.53;;;6.70;99.90;;;;;;5053231;28;20041;-61
2022/11/24 02:58:05;;;;;;;34.22;7.57;;;6.70;99.90;;;;;;5036326;28;20544;-61
2022/11/24 03:00:31;;;;;;;20.50;5.30;;;6.70;99.90;;;;;;5032942;28;20088;-61
2022/11/24 03:02:57;;;;;;;22.45;6.43;;;7.10;99.90;;;;;;5032675;28;20068;-61
2022/11/24 03:05:23;;;;;;;23.38;5.85;;;6.70;99.90;;;;;;5033063;28;20041;-62
2022/11/24 03:07:48;;;;;;;20.95;6.70;;;7.10;99.90;;;;;;5032670;28;20037;-61
2022/11/24 03:10:15;;;;;;;20.90;5.28;;;6.70;99.90;;;;;;5032656;28;20452;-61
2022/11/24 03:12:40;;;;;;;24.90;6.30;;;7.20;99.90;;;;;;5032530;28;20029;-61
2022/11/24 03:15:06;;;;;;;21.17;6.13;;;6.60;99.90;;;;;;5032561;28;20045;-61
2022/11/24 03:17:32;;;;;;;21.83;5.28;;;6.80;99.90;;;;;;5032393;28;20073;-61
2022/11/24 03:19:59;;;;;;;28.08;6.50;;;7.00;99.90;;;;;;5032513;28;20096;-61
2022/11/24 03:22:25;;;;;;;23.95;7.15;;;6.70;99.90;;;;;;5032394;28;20077;-61
2022/11/24 03:24:51;;;;;;;17.30;5.63;;;6.90;99.90;;;;;;5032489;28;20077;-61
2022/11/24 03:27:16;;;;;;;25.85;6.22;;;7.20;99.90;;;;;;5014751;28;20045;-61
2022/11/24 03:29:42;;;;;;;23.88;5.57;;;7.00;99.90;;;;;;5032445;28;20041;-61
2022/11/24 03:32:07;;;;;;;22.50;5.90;;;7.10;99.90;;;;;;5032569;28;20042;-62
2022/11/24 03:34:33;;;;;;;24.90;5.80;;;6.70;99.90;;;;;;5032463;28;20048;-61
2022/11/24 03:36:59;;;;;;;29.50;5.72;;;6.70;99.90;;;;;;5032420;28;20053;-62
2022/11/24 03:39:24;;;;;;;23.13;6.50;;;6.60;99.90;;;;;;5032504;28;20045;-62
2022/11/24 03:41:50;;;;;;;22.88;5.32;;;7.10;99.90;;;;;;5032511;28;20033;-61
2022/11/24 03:44:16;;;;;;;21.23;5.25;;;6.70;99.90;;;;;;5014170;28;20077;-61
2022/11/24 03:46:42;;;;;;;20.80;5.22;;;6.60;99.90;;;;;;5032518;28;20052;-62
2022/11/24 03:49:08;;;;;;;22.67;6.65;;;6.70;99.90;;;;;;5032159;28;20128;-61
2022/11/24 03:51:34;;;;;;;20.77;5.30;;;6.60;99.90;;;;;;5014627;28;20056;-61
2022/11/24 03:54:00;;;;;;;24.17;5.50;;;6.80;99.90;;;;;;5032184;28;20045;-61
2022/11/24 03:56:26;;;;;;;21.48;5.45;;;6.70;99.90;;;;;;5034959;28;20388;-62
2022/11/24 03:58:52;;;;;;;20.45;5.20;;;7.00;99.90;;;;;;5052360;28;20095;-61
2022/11/24 04:01:17;;;;;;;25.25;5.28;;;6.80;99.90;;;;;;5051886;28;20223;-61
2022/11/24 04:03:43;;;;;;;25.70;4.78;;;6.50;99.90;;;;;;5052107;28;20122;-61
2022/11/24 04:06:09;;;;;;;20.05;4.78;;;7.00;99.90;;;;;;5052699;28;20384;-62
2022/11/24 04:08:35;;;;;;;22.13;6.18;;;6.50;99.90;;;;;;5034965;28;20076;-62
2022/11/24 04:11:00;;;;;;;18.27;4.25;;;6.90;99.90;;;;;;5051903;28;20512;-61
2022/11/24 04:13:27;;;;;;;20.42;4.60;;;6.70;99.90;;;;;;5052310;28;20516;-60
2022/11/24 04:15:53;;;;;;;16.80;4.28;;;6.70;99.90;;;;;;5051514;28;20052;-60
2022/11/24 04:18:19;;;;;;;22.35;4.60;;;7.00;99.90;;;;;;5051942;28;20053;-61
2022/11/24 04:20:49;;;;;;;21.60;5.13;;;6.70;99.90;;;;;;5051674;28;20036;-60
2022/11/24 04:23:15;;;;;;;23.27;5.80;;;6.80;99.90;;;;;;5051879;28;20123;-61
2022/11/24 04:25:42;;;;;;;20.35;4.13;;;6.60;99.90;;;;;;5051702;28;20120;-61
2022/11/24 04:28:08;;;;;;;18.42;3.78;;;6.70;99.90;;;;;;5051691;28;20048;-61
2022/11/24 04:30:35;;;;;;;16.83;4.05;;;6.80;99.90;;;;;;5051556;28;20474;-61
2022/11/24 04:33:00;;;;;;;18.38;3.85;;;7.00;99.90;;;;;;5051553;28;20040;-61
2022/11/24 04:35:26;;;;;;;23.20;4.53;;;6.90;99.90;;;;;;5051727;28;20040;-62
2022/11/24 04:37:52;;;;;;;20.92;3.95;;;7.00;99.90;;;;;;5051684;28;20119;-61
2022/11/24 04:40:18;;;;;;;20.77;4.07;;;6.60;99.90;;;;;;5033699;28;20045;-61
2022/11/24 04:42:52;;;;;;;23.00;4.32;;;6.80;99.90;;;;;;5033901;28;20052;-61
2022/11/24 04:45:17;;;;;;;27.20;5.28;;;6.50;99.90;;;;;;5051519;28;20798;-61
2022/11/24 04:47:43;;;;;;;27.25;5.47;;;6.60;99.90;;;;;;5051432;28;20080;-62
2022/11/24 04:50:09;;;;;;;20.80;3.75;;;6.80;99.90;;;;;;5051614;28;20037;-61
2022/11/24 04:52:34;;;;;;;14.35;3.67;;;6.90;99.90;;;;;;5051619;28;20033;-61
2022/11/24 04:55:00;;;;;;;19.90;4.65;;;6.50;99.90;;;;;;5051123;28;20098;-61
2022/11/24 04:57:26;;;;;;;22.45;7.47;;;6.80;99.90;;;;;;5042221;28;20033;-60
2022/11/24 04:59:53;;;;;;;18.60;3.70;;;6.90;99.90;;;;;;5035375;28;20397;-61
2022/11/24 05:02:19;;;;;;;21.73;3.72;;;6.90;99.90;;;;;;5035278;28;20041;-62
2022/11/24 05:04:46;;;;;;;17.33;3.85;;;6.80;99.90;;;;;;5034922;28;20037;-61
2022/11/24 05:07:16;;;;;;;16.98;3.88;;;6.90;99.90;;;;;;5035088;28;20033;-61
2022/11/24 05:12:30;;;;;;;16.77;4.10;;;6.40;99.90;;;;;;5035002;28;20129;-61
2022/11/24 05:15:00;;;;;;;18.95;3.95;;;6.30;99.90;;;;;;5034846;28;20076;-61
2022/11/24 05:17:36;;;;;;;23.60;4.80;;;6.40;99.90;;;;;;5034992;28;20076;-61
2022/11/24 05:20:03;;;;;;;17.35;3.92;;;6.40;99.90;;;;;;5034535;28;20071;-61
2022/11/24 05:22:28;;;;;;;19.15;3.88;;;6.70;99.90;;;;;;5034496;28;20045;-61
2022/11/24 05:24:54;;;;;;;22.65;5.07;;;6.50;99.90;;;;;;5034747;28;20048;-61
2022/11/24 05:27:20;;;;;;;22.30;4.00;;;6.70;99.90;;;;;;5034558;28;20478;-47
2022/11/24 05:29:46;;;;;;;19.00;4.40;;;6.40;99.90;;;;;;5034675;28;20441;-48
2022/11/24 05:32:12;;;;;;;15.27;3.80;;;6.70;99.90;;;;;;5034429;28;20046;-50
2022/11/24 05:34:37;;;;;;;21.20;4.18;;;6.40;99.90;;;;;;5034878;28;20116;-49
2022/11/24 05:37:03;;;;;;;17.98;3.58;;;6.60;99.90;;;;;;5034350;28;20402;-48
2022/11/24 05:39:33;;;;;;;18.48;3.35;;;6.50;99.90;;;;;;5016972;28;20033;-46
2022/11/24 05:42:39;;;;;;;16.92;3.53;;;6.40;99.90;;;;;;5034601;28;20112;-48
2022/11/24 05:44:47;;;;;;;24.63;3.75;;;6.60;99.90;;;;;;5034410;28;20137;-46
2022/11/24 05:47:13;;;;;;;22.60;5.43;;;6.50;99.90;;;;;;5034343;28;20112;-48
2022/11/24 05:49:38;;;;;;;17.42;3.80;;;6.20;99.90;;;;;;5034358;28;20045;-47
2022/11/24 05:52:04;;;;;;;18.60;4.50;;;6.60;99.90;;;;;;5034090;28;20037;-47
2022/11/24 05:54:29;;;;;;;19.50;3.83;;;6.60;99.90;;;;;;5034557;28;20045;-49
2022/11/24 05:56:55;;;;;;;23.65;4.10;;;6.30;99.90;;;;;;5040554;28;20068;-46
2022/11/24 05:59:21;;;;;;;19.42;4.25;;;6.60;99.90;;;;;;5053769;28;20127;-49
2022/11/24 06:01:47;;;;;;;21.02;4.20;;;6.20;99.90;;;;;;5036040;28;20041;-46
2022/11/24 06:04:12;;;;;;;19.27;4.90;;;6.30;99.90;;;;;;5054140;28;20056;-46
2022/11/24 06:06:38;;;;;;;20.50;4.32;;;6.30;99.90;;;;;;5053990;28;20444;-46
2022/11/24 06:09:04;;;;;;;17.00;3.65;;;6.60;99.90;;;;;;5053786;28;20631;-49
2022/11/24 06:11:29;;;;;;;18.63;3.88;;;6.60;99.90;;;;;;5053565;28;20524;-46
2022/11/24 06:13:55;;;;;;;20.77;4.00;;;6.20;99.90;;;;;;5053718;28;20041;-45
2022/11/24 06:16:21;;;;;;;17.90;4.10;;;6.60;99.90;;;;;;5053621;28;20551;-46
2022/11/24 06:18:46;;;;;;;22.45;4.95;;;6.50;99.90;;;;;;5035870;28;20045;-45
2022/11/24 06:21:12;;;;;;;20.85;4.20;;;6.30;99.90;;;;;;5053689;28;20036;-46
2022/11/24 06:23:39;;;;;;;20.13;3.97;;;6.60;99.90;;;;;;5035876;28;20048;-45
2022/11/24 06:26:05;;;;;;;20.25;3.90;;;6.30;99.90;;;;;;5053286;28;20577;-45
2022/11/24 06:28:30;;;;;;;20.80;4.40;;;6.30;99.90;;;;;;5052552;28;20497;-47
2022/11/24 06:31:03;;;;;;;14.43;3.63;;;6.30;99.90;;;;;;5025669;28;20045;-46
2022/11/24 06:33:36;;;;;;;20.35;3.70;;;6.40;99.90;;;;;;5039632;28;20520;-46
2022/11/24 06:36:09;;;;;;;17.42;3.08;;;6.50;99.90;;;;;;5022304;28;20049;-47
2022/11/24 06:38:35;;;;;;;17.92;3.15;;;6.50;99.90;;;;;;5041820;28;20043;-47
2022/11/24 06:41:06;;;;;;;13.05;3.38;;;6.20;99.90;;;;;;5008547;28;20029;-47
2022/11/24 06:43:33;;;;;;;17.02;3.22;;;6.50;99.90;;;;;;5041829;28;20719;-50
2022/11/24 06:45:59;;;;;;;13.50;3.38;;;6.40;99.90;;;;;;5040793;28;20044;-50
2022/11/24 06:48:25;;;;;;;19.10;3.47;;;6.20;99.90;;;;;;5042454;28;20037;-49
2022/11/24 06:50:51;;;;;;;17.08;3.13;;;6.40;99.90;;;;;;5042118;28;20431;-50
2022/11/24 06:53:17;;;;;;;18.88;3.67;;;6.50;99.90;;;;;;5040868;28;20375;-47
2022/11/24 06:55:45;;;;;;;13.80;3.00;;;6.20;99.90;;;;;;5042660;28;20044;-52
2022/11/24 06:58:10;;;;;;;16.88;4.10;;;6.40;99.90;;;;;;5041072;28;20045;-51
2022/11/24 07:00:37;;;;;;;16.35;2.88;;;6.40;99.90;;;;;;5042463;28;20462;-47
2022/11/24 07:03:03;;;;;;;13.52;3.17;;;6.10;99.90;;;;;;5022671;28;20045;-48
2022/11/24 07:05:30;;;;;;;16.48;3.22;;;6.30;99.90;;;;;;5041668;28;20041;-46
2022/11/24 07:07:58;;;;;;;12.85;3.10;;;6.20;99.90;;;;;;5034112;28;20111;-50
2022/11/24 07:10:24;;;;;;;12.63;2.80;;;6.00;99.90;;;;;;5013582;28;20061;-47
2022/11/24 07:12:50;;;;;;;16.77;3.33;;;6.20;99.90;;;;;;5031225;28;20041;-50
2022/11/24 07:15:15;;;;;;;17.77;3.33;;;6.10;99.90;;;;;;5031225;28;20049;-50
2022/11/24 07:17:41;;;;;;;15.32;3.38;;;6.40;99.90;;;;;;5031203;28;20073;-48
2022/11/24 07:20:08;;;;;;;13.50;2.83;;;6.00;99.90;;;;;;5030556;28;20095;-50
2022/11/24 07:22:34;;;;;;;13.48;3.10;;;6.40;99.90;;;;;;5031048;28;20124;-50
2022/11/24 07:25:00;;;;;;;12.40;3.05;;;6.00;99.90;;;;;;5031026;28;20089;-46
2022/11/24 07:27:27;;;;;;;12.80;3.05;;;6.50;99.90;;;;;;5013791;28;20076;-46
2022/11/24 07:29:52;;;;;;;13.90;3.35;;;6.40;99.90;;;;;;5031504;28;20406;-46
2022/11/24 07:32:18;;;;;;;15.95;3.38;;;6.00;99.90;;;;;;5031484;28;20044;-46
2022/11/24 07:34:44;;;;;;;13.70;3.55;;;6.10;99.90;;;;;;5031540;28;20049;-46
2022/11/24 07:37:09;;;;;;;12.35;3.15;;;6.10;99.90;;;;;;5036908;28;20047;-46
2022/11/24 07:39:35;;;;;;;16.50;2.72;;;6.40;99.90;;;;;;5049671;28;20045;-46
2022/11/24 07:42:01;;;;;;;15.85;3.42;;;6.30;99.90;;;;;;5050778;28;20401;-47
2022/11/24 07:44:26;;;;;;;12.55;3.50;;;6.50;99.90;;;;;;5050317;28;20461;-47
2022/11/24 07:46:52;;;;;;;12.40;3.75;;;6.20;99.90;;;;;;5050835;28;20116;-45
2022/11/24 07:49:18;;;;;;;13.35;3.80;;;6.20;99.90;;;;;;5051008;28;20543;-46
2022/11/24 07:51:44;;;;;;;15.23;4.35;;;6.30;99.90;;;;;;5051132;28;20037;-47
2022/11/24 07:54:10;;;;;;;17.73;4.88;;;6.50;99.90;;;;;;5051023;28;20684;-49
2022/11/24 07:56:36;;;;;;;17.02;3.88;;;6.20;99.90;;;;;;5046904;28;20045;-50
2022/11/24 07:59:02;;;;;;;16.23;4.47;;;6.50;99.90;;;;;;5031161;28;20039;-47
2022/11/24 08:01:28;;;;;;;10.27;3.50;;;6.20;99.90;;;;;;5031412;28;20068;-48
2022/11/24 08:03:56;;;;;;;12.60;4.30;;;6.40;99.90;;;;;;4996769;28;20045;-47
2022/11/24 08:06:22;;;;;;;18.50;4.43;;;6.60;99.90;;;;;;5031210;28;20382;-47
2022/11/24 08:08:47;;;;;;;20.85;4.63;;;6.60;99.90;;;;;;5030932;28;20050;-46
2022/11/24 08:11:16;;;;;;;18.52;4.43;;;6.40;99.90;;;;;;5030790;28;20056;-47
2022/11/24 08:13:42;;;;;;;15.35;5.00;;;6.40;99.90;;;;;;5031096;28;20088;-46
2022/11/24 08:16:11;;;;;;;16.58;4.30;;;6.40;99.90;;;;;;5013665;28;20107;-47
2022/11/24 08:18:38;;;;;;;15.00;4.43;;;6.50;99.90;;;;;;5013594;28;20453;-47
2022/11/24 08:21:05;;;;;;;13.98;3.88;;;6.70;99.90;;;;;;5031311;28;20029;-48
2022/11/24 08:23:31;;;;;;;12.98;4.45;;;6.70;99.90;;;;;;5031094;28;20425;-45
2022/11/24 08:26:02;;;;;;;20.40;4.80;;;6.60;99.90;;;;;;5030860;28;20121;-49
2022/11/24 08:28:28;;;;;;;13.90;4.10;;;6.50;99.90;;;;;;5013145;28;20053;-48
2022/11/24 08:31:01;;;;;;;18.05;4.57;;;6.70;99.90;;;;;;5030907;28;20386;-46
2022/11/24 08:33:27;;;;;;;12.35;4.60;;;6.60;99.90;;;;;;5034638;28;20055;-47
2022/11/24 08:35:52;;;;;;;15.00;5.07;;;6.80;99.90;;;;;;5034642;28;20045;-48
2022/11/24 08:38:18;;;;;;;20.75;5.55;;;6.70;99.90;;;;;;5034636;28;20128;-47
2022/11/24 08:40:44;;;;;;;15.27;4.68;;;6.70;99.90;;;;;;5034680;28;20049;-49
2022/11/24 08:43:09;;;;;;;20.02;5.15;;;6.90;99.90;;;;;;5034807;28;20049;-46
2022/11/24 08:45:35;;;;;;;20.02;5.60;;;6.80;99.90;;;;;;5034840;28;20041;-46
2022/11/24 08:48:00;;;;;;;11.18;4.50;;;6.80;99.90;;;;;;5034779;28;20044;-47
2022/11/24 08:50:26;;;;;;;14.45;4.50;;;6.80;99.90;;;;;;5034637;28;20095;-47
2022/11/24 08:52:52;;;;;;;19.83;5.03;;;6.80;99.90;;;;;;5034615;28;20104;-46
2022/11/24 08:55:18;;;;;;;13.57;4.20;;;6.70;99.90;;;;;;5016828;28;20447;-46
2022/11/24 08:57:44;;;;;;;16.88;4.65;;;7.00;99.90;;;;;;5047967;28;20033;-48
2022/11/24 09:00:10;;;;;;;16.98;4.78;;;6.90;99.90;;;;;;5035853;28;20117;-50
2022/11/24 09:02:36;;;;;;;16.67;5.03;;;6.90;99.90;;;;;;5053490;28;20048;-50
2022/11/24 09:05:02;;;;;;;17.17;5.32;;;6.90;99.90;;;;;;5052925;28;20041;-48
2022/11/24 09:07:27;;;;;;;11.18;4.90;;;6.80;99.90;;;;;;5053342;28;20033;-49
2022/11/24 09:09:53;;;;;;;12.65;4.70;;;6.90;99.90;;;;;;5053891;28;20045;-48
2022/11/24 09:12:19;;;;;;;17.80;5.30;;;7.10;99.90;;;;;;5036058;28;20385;-47
2022/11/24 09:14:44;;;;;;;16.40;4.75;;;7.20;99.90;;;;;;5054346;28;20075;-48
2022/11/24 09:17:10;;;;;;;16.00;4.80;;;7.10;99.90;;;;;;5054335;28;20052;-47
2022/11/24 09:19:36;;;;;;;17.95;5.30;;;7.10;99.90;;;;;;5049093;28;20044;-49
2022/11/24 09:22:01;;;;;;;21.60;5.57;;;7.10;99.90;;;;;;5047130;28;20041;-46
2022/11/24 09:24:27;;;;;;;11.98;4.70;;;7.20;99.90;;;;;;5035868;28;20041;-46
2022/11/24 09:26:54;;;;;;;16.40;4.43;;;7.10;99.90;;;;;;5054040;28;20056;-46
2022/11/24 09:29:20;;;;;;;13.55;4.35;;;7.40;99.90;;;;;;5036163;28;20052;-47
2022/11/24 09:31:45;;;;;;;15.82;5.68;;;7.40;99.90;;;;;;5053774;28;20485;-49
2022/11/24 09:34:13;;;;;;;12.65;4.85;;;7.60;99.90;;;;;;5053682;28;20046;-47
2022/11/24 09:36:39;;;;;;;17.88;4.65;;;7.30;99.90;;;;;;5053084;28;20061;-49
2022/11/24 09:39:05;;;;;;;14.55;3.83;;;7.40;99.90;;;;;;5053258;28;20103;-45
2022/11/24 09:41:55;;;;;;;15.75;4.53;;;7.50;99.90;;;;;;5053418;28;20090;-49
2022/11/24 09:44:44;;;;;;;13.80;4.50;;;7.50;99.90;;;;;;5048463;28;20045;-48
2022/11/24 09:47:36;;;;;;;14.38;4.32;;;7.80;99.90;;;;;;5009726;28;20040;-51
2022/11/24 09:50:09;;;;;;;17.25;4.18;;;7.70;99.90;;;;;;5043400;28;20366;-51
2022/11/24 09:52:39;;;;;;;;;;;7.70;99.90;;;;;;5042214;28;20136;-51
2022/11/24 09:55:35;;;;;;;9.57;3.58;;;8.00;99.90;;;;;;5039392;28;19921;-48
2022/11/24 09:58:08;;;;;;;10.05;3.33;;;7.90;99.90;;;;;;5048930;28;20127;-49
2022/11/24 10:00:37;;;;;;;9.30;3.42;;;8.10;99.90;;;;;;5052794;28;20044;-47
2022/11/24 10:03:04;;;;;;;8.95;2.50;;;8.20;99.90;;;;;;5052846;28;20041;-50
2022/11/24 10:05:34;;;;;;;9.32;2.75;;;8.10;99.90;;;;;;5048395;28;20045;-51
2022/11/24 10:08:43;;;;;;;10.25;2.75;;;8.20;99.90;;;;;;5053142;28;20033;-49
2022/11/24 10:11:14;;;;;;;11.13;2.78;;;8.30;99.90;;;;;;5052718;28;20114;-47
2022/11/24 10:13:47;;;;;;;8.95;3.33;;;8.40;99.90;;;;;;5052998;28;20053;-45
2022/11/24 10:16:31;;;;;;;11.38;3.00;;;8.40;99.90;;;;;;5052825;28;20058;-48
2022/11/24 10:19:08;;;;;;;11.25;3.03;;;8.50;99.90;;;;;;5052947;28;20072;-48
2022/11/24 10:21:50;;;;;;;9.27;2.70;;;8.50;99.90;;;;;;5053041;28;20044;-47
2022/11/24 10:24:34;;;;;;;11.40;3.13;;;8.30;99.90;;;;;;5053314;28;20083;-50
2022/11/24 10:27:22;;;;;;;10.23;3.10;;;8.50;99.90;;;;;;5053402;28;20045;-54
2022/11/24 10:29:51;;;;;;;8.25;2.47;;;8.50;99.90;;;;;;5052503;28;20075;-50
2022/11/24 10:32:24;;;;;;;10.55;2.95;;;8.40;99.90;;;;;;5053288;28;20039;-47
2022/11/24 10:34:50;;;;;;;10.45;3.20;;;8.70;99.90;;;;;;5036475;28;20405;-47
2022/11/24 10:37:35;;;;;;;11.27;2.70;;;8.60;99.90;;;;;;5053172;28;20492;-48
2022/11/24 10:40:23;;;;;;;11.70;2.78;;;8.60;99.90;;;;;;5053309;28;20051;-45
2022/11/24 10:42:48;;;;;;;8.85;2.78;;;8.70;99.90;;;;;;5053183;28;20044;-45
2022/11/24 10:45:21;;;;;;;9.35;2.60;;;8.80;99.90;;;;;;5053173;28;20041;-46
2022/11/24 10:47:47;;;;;;;12.45;3.70;;;8.90;99.90;;;;;;5053031;28;20106;-45
2022/11/24 10:50:31;;;;;;;10.57;2.85;;;8.80;99.90;;;;;;5040222;28;20045;-46
2022/11/24 10:53:18;;;;;;;8.38;2.55;;;8.90;99.90;;;;;;5032035;28;20521;-46
2022/11/24 10:55:55;;;;;;;11.07;2.88;;;8.90;99.90;;;;;;5031090;28;20405;-46
2022/11/24 10:58:29;;;;;;;10.07;2.45;;;9.00;99.90;;;;;;5051050;28;20040;-46
2022/11/24 11:00:57;;;;;;;6.95;2.40;;;9.00;99.90;;;;;;5052085;28;20112;-46
2022/11/24 11:03:26;;;;;;;10.60;2.95;;;9.00;99.90;;;;;;5052103;28;20489;-46
2022/11/24 11:06:08;;;;;;;9.18;2.95;;;9.10;99.90;;;;;;5034447;28;20040;-46
2022/11/24 11:08:34;;;;;;;9.57;2.33;;;9.20;99.90;;;;;;5052434;28;20146;-48
2022/11/24 11:11:17;;;;;;;10.18;2.78;;;9.40;99.90;;;;;;5051629;28;20564;-45
2022/11/24 11:13:51;;;;;;;9.75;2.53;;;9.40;99.90;;;;;;5052087;28;20072;-45
2022/11/24 11:16:50;;;;;;;11.90;2.50;;;9.50;99.90;;;;;;5052132;28;20055;-45
2022/11/24 11:19:36;;;;;;;8.15;3.03;;;9.60;99.90;;;;;;5037565;28;20104;-46
2022/11/24 11:22:10;;;;;;;10.13;2.55;;;9.50;99.90;;;;;;5052206;28;20106;-48
2022/11/24 11:24:41;;;;;;;7.38;2.72;;;9.50;99.90;;;;;;5052349;28;20076;-45
2022/11/24 11:27:19;;;;;;;11.45;3.22;;;9.60;99.90;;;;;;5051644;28;20115;-47
2022/11/24 11:29:45;;;;;;;12.35;3.25;;;9.50;99.90;;;;;;5051663;28;20037;-47
2022/11/24 11:32:22;;;;;;;12.88;2.65;;;9.70;99.90;;;;;;5051588;28;20072;-47
2022/11/24 11:34:50;;;;;;;11.68;3.67;;;9.50;99.90;;;;;;5052104;28;20179;-51
2022/11/24 11:37:17;;;;;;;13.55;2.80;;;9.60;99.90;;;;;;5051701;28;20052;-49
2022/11/24 11:39:47;;;;;;;9.45;3.00;;;9.70;99.90;;;;;;5033904;28;20049;-47
2022/11/24 11:42:16;;;;;;;9.80;2.65;;;9.70;99.90;;;;;;5051785;28;20040;-45
2022/11/24 11:44:47;;;;;;;8.45;2.75;;;9.60;99.90;;;;;;5051841;28;20072;-46
2022/11/24 11:47:22;;;;;;;7.50;2.78;;;9.80;99.90;;;;;;5051748;28;20041;-48
2022/11/24 11:49:48;;;;;;;12.75;2.75;;;9.70;99.90;;;;;;5017764;28;20036;-47
2022/11/24 11:52:32;;;;;;;14.07;3.08;;;9.70;99.90;;;;;;5051850;28;20392;-47
2022/11/24 11:55:21;;;;;;;10.63;2.55;;;9.70;99.90;;;;;;5052013;28;20048;-48
2022/11/24 11:58:22;;;;;;;12.52;2.80;;;9.70;99.90;;;;;;5051704;28;20045;-46
2022/11/24 12:01:17;;;;;;;8.98;2.75;;;9.60;99.90;;;;;;5025701;28;20053;-47
2022/11/24 12:03:46;;;;;;;9.32;2.60;;;9.60;99.90;;;;;;5029187;28;20041;-49
2022/11/24 12:06:49;;;;;;;9.93;2.50;;;9.70;99.90;;;;;;5045167;28;20135;-47
2022/11/24 12:09:27;;;;;;;11.32;2.50;;;9.70;99.90;;;;;;5047132;28;20029;-48
2022/11/24 12:12:12;;;;;;;10.75;2.72;;;9.70;99.90;;;;;;5046710;28;20401;-47
2022/11/24 12:14:52;;;;;;;9.93;2.70;;;9.80;99.90;;;;;;5029647;28;20045;-48
2022/11/24 12:17:34;;;;;;;11.32;2.65;;;9.80;99.90;;;;;;5047404;28;20050;-47
2022/11/24 12:20:03;;;;;;;8.75;2.22;;;9.80;99.90;;;;;;5047636;28;20029;-49
2022/11/24 12:22:57;;;;;;;10.27;2.85;;;9.90;99.90;;;;;;5046874;28;20053;-48
2022/11/24 12:25:48;;;;;;;11.50;3.50;;;9.80;99.90;;;;;;5047932;28;20076;-48
2022/11/24 12:28:41;;;;;;;13.07;2.60;;;10.00;99.90;;;;;;5027758;28;20045;-49
2022/11/24 12:31:11;;;;;;;14.00;2.70;;;9.80;99.90;;;;;;5038407;28;20441;-49
2022/11/24 12:33:56;;;;;;;9.82;2.50;;;9.90;99.90;;;;;;5038345;28;20050;-49
2022/11/24 12:37:03;;;;;;;8.52;2.53;;;10.00;99.90;;;;;;5038437;28;20068;-61
2022/11/24 12:39:59;;;;;;;14.85;2.83;;;9.90;99.90;;;;;;4957125;29;20515;-61
2022/11/24 12:42:44;;;;;;;12.60;2.80;;;9.90;99.90;;;;;;5038274;28;20077;-61
2022/11/24 12:45:30;;;;;;;16.65;3.10;;;9.90;99.90;;;;;;5038216;28;20041;-60
2022/11/24 12:48:13;;;;;;;10.55;2.83;;;10.00;99.90;;;;;;5038064;28;20474;-61
2022/11/24 12:50:40;;;;;;;;;;;9.90;99.90;;;;;;5038475;28;20038;-61
2022/11/24 12:53:12;;;;;;;14.73;2.60;;;9.90;99.90;;;;;;5038236;28;19929;-61
2022/11/24 12:55:39;;;;;;;15.77;2.88;;;10.00;99.90;;;;;;5037875;28;20120;-60
2022/11/24 12:58:28;;;;;;;13.48;3.65;;;10.00;99.90;;;;;;5054735;28;20040;-60
2022/11/24 13:00:54;;;;;;;12.50;2.53;;;10.10;99.90;;;;;;5058259;28;20033;-61
2022/11/24 13:03:46;;;;;;;13.00;2.97;;;10.10;99.90;;;;;;5039890;28;20374;-61
2022/11/24 13:06:24;;;;;;;11.40;2.78;;;10.00;99.90;;;;;;5058081;28;20037;-61